Flight Track Log - Related Links

Times and Time Zones

All times are in EDT time to prevent confusion due to time zone crossing. See the SWA542 flight status page for this flight to view local times or setup timezone preferences in your user account.

Time Position Orientation Groundspeed Altitude Reporting Facility
EDT Latitude Longitude Course Direction KTS MPH feet Rate Location/Type
Sun 09:33:21 PM 47.5103 -122.3083 North 193 222 2,700  Level Seattle Center
Sun 09:34:22 PM 47.5733 -122.3292 347° North 266 306 5,700 3,471 Climbing Seattle Center
Sun 09:35:22 PM 47.6131 -122.4158 304° West 287 330 9,700 3,482 Climbing Seattle Center
Sun 09:36:14 PM 47.5886 -122.5161 250° West 321 369 12,200 3,268 Climbing Seattle Center
Sun 09:37:14 PM 47.5267 -122.6117 226° Southwest 340 391 15,800 3,372 Climbing Seattle Center
Sun 09:38:15 PM 47.4597 -122.7139 226° Southwest 348 400 19,000 3,000 Climbing Seattle Center
Sun 09:39:16 PM 47.3883 -122.8219 226° Southwest 364 419 21,900 2,754 Climbing Seattle Center
Sun 09:40:17 PM 47.3136 -122.9342 226° Southwest 380 437 24,600 2,479 Climbing Seattle Center
Sun 09:41:17 PM 47.2372 -123.0503 226° Southwest 394 453 26,900 2,132 Climbing Seattle Center
Sun 09:42:18 PM 47.1383 -123.1344 210° Southwest 414 476 28,900 1,721 Climbing Seattle Center
Sun 09:43:19 PM 47.0133 -123.1283 178° South 449 517 30,400 1,672 Climbing Seattle Center
Sun 09:44:20 PM 46.8603 -123.1181 177° South 465 535 32,300 1,736 Climbing Seattle Center
Sun 09:45:20 PM 46.7289 -123.1081 177° South 474 545 33,900 1,686 Climbing Seattle Center
Sun 09:46:21 PM 46.6014 -123.1028 178° South 466 536 35,700 1,377 Climbing Seattle Center
Sun 09:47:22 PM 46.4714 -123.0936 177° South 472 543 36,700 645 Climbing Seattle Center
Sun 09:48:22 PM 46.3389 -123.0819 177° South 478 550 37,000 397 Climbing Seattle Center
Sun 09:49:23 PM 46.2056 -123.0725 177° South 482 555 37,500 787 Climbing Seattle Center
Sun 09:50:24 PM 46.0586 -123.0606 177° South 483 556 38,600 738 Climbing Seattle Center
Sun 09:51:25 PM 45.9236 -123.0506 177° South 485 558 39,000 198 Climbing Seattle Center
Sun 09:52:25 PM 45.7878 -123.0400 177° South 487 560 39,000  Level Seattle Center
Sun 09:53:26 PM 45.6514 -123.0297 177° South 490 564 39,000  Level Seattle Center
Sun 09:54:27 PM 45.5167 -123.0192 177° South 486 559 39,000  Level Seattle Center
Sun 09:55:27 PM 45.3814 -123.0072 176° South 484 557 39,000  Level Seattle Center
Sun 09:56:28 PM 45.2469 -122.9967 177° South 482 555 39,000  Level Seattle Center
Sun 09:57:29 PM 45.1133 -122.9883 177° South 480 552 39,000  Level Seattle Center
Sun 09:58:30 PM 44.9797 -122.9792 177° South 478 550 39,000  Level Seattle Center
Sun 09:59:30 PM 44.8461 -122.9689 177° South 478 550 39,000  Level Seattle Center
Sun 10:00:33 PM 44.7136 -122.9581 177° South 474 545 39,000  Level Seattle Center
Sun 10:01:34 PM 44.5803 -122.9489 177° South 477 549 39,000  Level Seattle Center
Sun 10:02:35 PM 44.4456 -122.9403 177° South 482 555 39,000  Level Seattle Center
Sun 10:03:36 PM 44.2978 -122.9369 179° South 483 556 39,000  Level Seattle Center
Sun 10:04:36 PM 44.1606 -122.9328 179° South 486 559 39,000  Level Seattle Center
Sun 10:05:37 PM 44.0228 -122.9281 179° South 489 563 39,000  Level Seattle Center
Sun 10:06:38 PM 43.8867 -122.9228 178° South 488 562 39,000  Level Seattle Center
Sun 10:07:39 PM 43.7531 -122.9203 179° South 481 554 39,000  Level Seattle Center
Sun 10:08:39 PM 43.6183 -122.9161 179° South 483 556 39,000  Level Seattle Center
Sun 10:09:40 PM 43.4833 -122.9111 178° South 485 558 39,000  Level Seattle Center
Sun 10:10:41 PM 43.3503 -122.9067 179° South 479 551 39,000  Level Seattle Center
Sun 10:11:41 PM 43.2189 -122.9025 179° South 474 545 39,000  Level Seattle Center
Sun 10:12:42 PM 43.0867 -122.8986 179° South 473 544 39,000  Level Seattle Center
Sun 10:13:43 PM 42.9556 -122.8931 178° South 473 544 39,000  Level Seattle Center
Sun 10:14:44 PM 42.8225 -122.8900 179° South 476 548 39,000  Level Seattle Center
Sun 10:15:44 PM 42.6975 -122.8869 179° South 476 548 39,000  Level Seattle Center
Sun 10:16:45 PM 42.5400 -122.8825 179° South 474 545 39,000  Level Seattle Center
Sun 10:17:46 PM 42.4083 -122.8794 179° South 474 545 39,000  Level Seattle Center
Sun 10:18:46 PM 42.2767 -122.8753 179° South 476 548 39,000  Level Seattle Center
Sun 10:19:47 PM 42.1442 -122.8736 179° South 478 550 39,000  Level Seattle Center
Sun 10:20:48 PM 42.0117 -122.8683 178° South 479 551 39,000  Level Seattle Center
Sun 10:21:49 PM 41.8797 -122.8647 179° South 477 549 39,000  Level Seattle Center
Sun 10:22:49 PM 41.7483 -122.8625 179° South 475 547 39,000  Level Seattle Center
Sun 10:23:50 PM 41.6161 -122.8553 178° South 476 548 39,000  Level Seattle Center
Sun 10:24:51 PM 41.4839 -122.8444 176° South 477 549 39,000  Level Seattle Center
Sun 10:25:51 PM 41.3383 -122.8367 178° South 476 548 39,000  Level Seattle Center
Sun 10:26:52 PM 41.2067 -122.8253 176° South 475 547 39,000  Level Seattle Center
Sun 10:27:41 PM 41.1019 -122.8194 178° South 475 547 39,000  Level Oakland Center
Sun 10:28:42 PM 40.9675 -122.8122 178° South 482 555 39,000  Level Oakland Center
Sun 10:29:43 PM 40.8306 -122.8017 177° South 493 567 39,000  Level Oakland Center
Sun 10:30:44 PM 40.6950 -122.7925 177° South 491 565 39,000  Level Oakland Center
Sun 10:31:45 PM 40.5581 -122.7833 177° South 495 570 39,000  Level Oakland Center
Sun 10:32:46 PM 40.4200 -122.7742 177° South 500 575 39,000 -393 Level Oakland Center
Sun 10:33:47 PM 40.2547 -122.7631 177° South 500 575 38,200 -984 Descending Oakland Center
Sun 10:34:48 PM 40.1247 -122.7544 177° South 479 551 37,000 -1,082 Descending Oakland Center
Sun 10:35:49 PM 40.0017 -122.7472 177° South 453 521 36,000 -984 Descending Oakland Center
Sun 10:36:50 PM 39.8764 -122.7386 177° South 452 520 35,000 -934 Descending Oakland Center
Sun 10:37:51 PM 39.7494 -122.7306 177° South 459 528 34,100 -934 Descending Oakland Center
Sun 10:38:52 PM 39.6219 -122.7203 176° South 461 531 33,100 -934 Descending Oakland Center
Sun 10:39:53 PM 39.4956 -122.7139 178° South 459 528 32,200 -1,082 Descending Oakland Center
Sun 10:40:54 PM 39.3667 -122.7075 178° South 464 534 30,900 -1,770 Descending Oakland Center
Sun 10:41:55 PM 39.2364 -122.6989 177° South 469 540 28,600 -2,508 Descending Oakland Center
Sun 10:42:56 PM 39.0886 -122.6833 175° South 452 520 25,800 -2,488 Descending Oakland Center
Sun 10:43:58 PM 38.9647 -122.6769 178° South 447 514 23,500 -2,244 Descending Oakland Center
Sun 10:44:59 PM 38.8419 -122.6742 179° South 441 507 21,200 -2,361 Descending Oakland Center
Sun 10:46:00 PM 38.7236 -122.6664 177° South 430 495 18,700 -2,262 Descending Oakland Center
Sun 10:47:01 PM 38.6094 -122.6569 176° South 418 481 16,600 -2,016 Descending Oakland Center
Sun 10:48:02 PM 38.4997 -122.6458 175° South 402 463 14,600 -1,967 Descending Oakland Center
Sun 10:49:03 PM 38.3944 -122.6250 171° South 388 447 12,600 -1,918 Descending Oakland Center
Sun 10:50:04 PM 38.2939 -122.6061 172° South 372 428 10,700 -1,377 Descending Oakland Center
Sun 10:51:05 PM 38.1986 -122.5878 171° South 354 407 9,800 -1,230 Descending Oakland Center
Sun 10:52:06 PM 38.1106 -122.5711 172° South 328 377 8,200 -1,279 Descending Oakland Center
Sun 10:53:07 PM 38.0364 -122.5106 147° Southeast 317 365 7,200 -984 Descending Oakland Center
Sun 10:54:08 PM 37.9664 -122.4456 144° Southeast 308 354 6,200 -984 Descending Oakland Center
Sun 10:55:09 PM 37.8942 -122.3786 144° Southeast 314 361 5,200 -590 Descending Oakland Center
Sun 10:56:10 PM 37.8414 -122.2950 129° Southeast 308 354 5,000 -293 Descending Oakland Center
Sun 10:57:12 PM 37.7906 -122.2083 127° Southeast 307 353 4,600 -585 Descending Oakland Center
Sun 10:58:13 PM 37.7419 -122.1247 126° Southeast 299 344 3,800 -639 Descending Oakland Center
Sun 10:59:14 PM 37.6744 -122.0878 157° South 268 308 3,300 -738 Descending Oakland Center
Sun 11:00:15 PM 37.6328 -122.1156 208° Southwest 205 236 2,300 -984 Descending Oakland Center
Sun 11:01:16 PM 37.6556 -122.1453 314° West 150 173 1,300 -787 Descending Oakland Center
Sun 11:02:17 PM 37.6769 -122.1783 309° West 130 150 700 -590 Descending Oakland Center
Sun 11:03:18 PM 37.6981 -122.2089 311° West 121 139 100 -590 Descending Oakland Center

Login

Don't have an account? Register now (free) for customized features, flight alerts, and more!